sensor_id;sensor_type;location;lat;lon;timestamp;pressure;altitude;pressure_sealevel;temperature;humidity
61345;BME280;47216;42.656;23.232;2023-04-25T00:00:02;93151.16;;;10.89;79.15
61345;BME280;47216;42.656;23.232;2023-04-25T00:02:32;93148.03;;;10.87;79.88
61345;BME280;47216;42.656;23.232;2023-04-25T00:05:01;93136.28;;;10.90;80.80
61345;BME280;47216;42.656;23.232;2023-04-25T00:07:28;93119.91;;;10.79;81.09
61345;BME280;47216;42.656;23.232;2023-04-25T00:09:56;93109.97;;;10.81;81.46
61345;BME280;47216;42.656;23.232;2023-04-25T00:12:23;93099.53;;;10.86;81.84
61345;BME280;47216;42.656;23.232;2023-04-25T00:14:50;93096.16;;;10.81;80.87
61345;BME280;47216;42.656;23.232;2023-04-25T00:17:18;93099.63;;;10.66;81.68
61345;BME280;47216;42.656;23.232;2023-04-25T00:19:45;93101.44;;;10.60;82.42
61345;BME280;47216;42.656;23.232;2023-04-25T00:22:14;93090.00;;;10.46;82.13
61345;BME280;47216;42.656;23.232;2023-04-25T00:24:41;93108.78;;;10.48;82.54
61345;BME280;47216;42.656;23.232;2023-04-25T00:27:07;93104.84;;;10.56;82.47
61345;BME280;47216;42.656;23.232;2023-04-25T00:29:35;93088.97;;;10.52;82.05
61345;BME280;47216;42.656;23.232;2023-04-25T00:32:02;93093.34;;;10.62;82.25
61345;BME280;47216;42.656;23.232;2023-04-25T00:34:29;93084.75;;;10.66;81.20
61345;BME280;47216;42.656;23.232;2023-04-25T00:36:55;93084.47;;;10.73;80.84
61345;BME280;47216;42.656;23.232;2023-04-25T00:39:24;93098.56;;;10.62;80.11
61345;BME280;47216;42.656;23.232;2023-04-25T00:41:50;93080.31;;;10.67;79.41
61345;BME280;47216;42.656;23.232;2023-04-25T00:44:20;93070.91;;;10.71;79.24
61345;BME280;47216;42.656;23.232;2023-04-25T00:46:47;93079.75;;;10.80;79.45
61345;BME280;47216;42.656;23.232;2023-04-25T00:49:14;93078.13;;;10.89;79.34
61345;BME280;47216;42.656;23.232;2023-04-25T00:51:42;93079.66;;;11.01;78.93
61345;BME280;47216;42.656;23.232;2023-04-25T00:54:10;93072.00;;;11.14;79.43
61345;BME280;47216;42.656;23.232;2023-04-25T00:56:40;93075.94;;;11.12;78.22
61345;BME280;47216;42.656;23.232;2023-04-25T00:59:07;93077.50;;;11.13;78.65
61345;BME280;47216;42.656;23.232;2023-04-25T01:01:35;93053.31;;;11.02;78.07
61345;BME280;47216;42.656;23.232;2023-04-25T01:04:03;93052.97;;;11.09;78.10
61345;BME280;47216;42.656;23.232;2023-04-25T01:06:30;93048.25;;;11.21;78.14
61345;BME280;47216;42.656;23.232;2023-04-25T01:08:57;93048.75;;;11.23;77.92
61345;BME280;47216;42.656;23.232;2023-04-25T01:11:24;93042.41;;;11.34;77.26
61345;BME280;47216;42.656;23.232;2023-04-25T01:13:53;93049.66;;;11.43;78.08
61345;BME280;47216;42.656;23.232;2023-04-25T01:16:20;93053.78;;;11.49;78.21
61345;BME280;47216;42.656;23.232;2023-04-25T01:18:49;93054.25;;;11.56;77.59
61345;BME280;47216;42.656;23.232;2023-04-25T01:21:18;93066.75;;;11.59;77.33
61345;BME280;47216;42.656;23.232;2023-04-25T01:23:45;93064.16;;;11.59;77.96
61345;BME280;47216;42.656;23.232;2023-04-25T01:26:12;93065.72;;;11.60;77.91
61345;BME280;47216;42.656;23.232;2023-04-25T01:28:40;93071.22;;;11.59;77.46
61345;BME280;47216;42.656;23.232;2023-04-25T01:31:07;93051.66;;;11.56;77.08
61345;BME280;47216;42.656;23.232;2023-04-25T01:33:34;93062.56;;;11.63;76.89
61345;BME280;47216;42.656;23.232;2023-04-25T01:36:01;93058.41;;;11.57;77.19
61345;BME280;47216;42.656;23.232;2023-04-25T01:38:29;93063.84;;;11.66;76.75
61345;BME280;47216;42.656;23.232;2023-04-25T01:40:56;93050.13;;;11.50;76.64
61345;BME280;47216;42.656;23.232;2023-04-25T01:43:23;93064.25;;;11.49;76.99
61345;BME280;47216;42.656;23.232;2023-04-25T01:45:51;93067.97;;;11.38;77.07
61345;BME280;47216;42.656;23.232;2023-04-25T01:48:19;93069.03;;;11.31;77.36
61345;BME280;47216;42.656;23.232;2023-04-25T01:50:45;93062.75;;;11.38;77.53
61345;BME280;47216;42.656;23.232;2023-04-25T01:53:13;93072.59;;;11.46;77.39
61345;BME280;47216;42.656;23.232;2023-04-25T01:55:42;93059.03;;;11.49;77.12
61345;BME280;47216;42.656;23.232;2023-04-25T01:58:09;93072.59;;;11.51;76.15
61345;BME280;47216;42.656;23.232;2023-04-25T02:00:38;93072.13;;;11.44;76.94
61345;BME280;47216;42.656;23.232;2023-04-25T02:03:06;93077.09;;;11.40;76.72
61345;BME280;47216;42.656;23.232;2023-04-25T02:05:34;93052.13;;;11.24;77.40
61345;BME280;47216;42.656;23.232;2023-04-25T02:08:02;93055.47;;;11.29;77.41
61345;BME280;47216;42.656;23.232;2023-04-25T02:10:29;93064.91;;;11.25;77.91
61345;BME280;47216;42.656;23.232;2023-04-25T02:12:58;93052.09;;;11.29;77.96
61345;BME280;47216;42.656;23.232;2023-04-25T02:15:25;93050.72;;;11.36;77.78
61345;BME280;47216;42.656;23.232;2023-04-25T02:17:52;93044.44;;;11.43;78.05
61345;BME280;47216;42.656;23.232;2023-04-25T02:20:20;93041.09;;;11.37;77.63
61345;BME280;47216;42.656;23.232;2023-04-25T02:22:47;93047.09;;;11.38;77.18
61345;BME280;47216;42.656;23.232;2023-04-25T02:25:14;93044.97;;;11.40;77.28
61345;BME280;47216;42.656;23.232;2023-04-25T02:27:41;93034.34;;;11.31;77.09
61345;BME280;47216;42.656;23.232;2023-04-25T02:30:10;93029.06;;;11.36;76.68
61345;BME280;47216;42.656;23.232;2023-04-25T02:32:37;93029.06;;;11.36;76.26
61345;BME280;47216;42.656;23.232;2023-04-25T02:35:04;93027.31;;;11.26;76.59
61345;BME280;47216;42.656;23.232;2023-04-25T02:37:32;93026.28;;;11.22;76.89
61345;BME280;47216;42.656;23.232;2023-04-25T02:40:00;93023.00;;;11.11;76.87
61345;BME280;47216;42.656;23.232;2023-04-25T02:42:28;93025.31;;;11.13;77.10
61345;BME280;47216;42.656;23.232;2023-04-25T02:44:55;93014.88;;;11.13;76.94
61345;BME280;47216;42.656;23.232;2023-04-25T02:47:23;93017.69;;;11.22;76.90
61345;BME280;47216;42.656;23.232;2023-04-25T02:49:50;93002.88;;;11.12;76.76
61345;BME280;47216;42.656;23.232;2023-04-25T02:52:17;92996.09;;;11.11;76.93
61345;BME280;47216;42.656;23.232;2023-04-25T02:54:43;92994.00;;;11.13;76.59
61345;BME280;47216;42.656;23.232;2023-04-25T02:57:10;92999.25;;;11.08;77.36
61345;BME280;47216;42.656;23.232;2023-04-25T02:59:37;93004.25;;;10.99;78.50
61345;BME280;47216;42.656;23.232;2023-04-25T03:02:04;92993.13;;;10.83;79.92
61345;BME280;47216;42.656;23.232;2023-04-25T03:04:32;92987.13;;;10.88;80.69
61345;BME280;47216;42.656;23.232;2023-04-25T03:06:59;92985.34;;;10.78;80.52
61345;BME280;47216;42.656;23.232;2023-04-25T03:09:26;92990.59;;;10.73;80.91
61345;BME280;47216;42.656;23.232;2023-04-25T03:11:53;92990.84;;;10.71;81.42
61345;BME280;47216;42.656;23.232;2023-04-25T03:14:20;92995.31;;;10.66;81.37
61345;BME280;47216;42.656;23.232;2023-04-25T03:16:47;92994.78;;;10.69;81.67
61345;BME280;47216;42.656;23.232;2023-04-25T03:19:14;92997.09;;;10.76;81.68
61345;BME280;47216;42.656;23.232;2023-04-25T03:21:44;92982.81;;;10.68;82.18
61345;BME280;47216;42.656;23.232;2023-04-25T03:24:11;92986.22;;;10.63;82.69
61345;BME280;47216;42.656;23.232;2023-04-25T03:26:37;92994.78;;;10.69;82.62
61345;BME280;47216;42.656;23.232;2023-04-25T03:29:05;92984.34;;;10.69;82.23
61345;BME280;47216;42.656;23.232;2023-04-25T03:31:31;92980.72;;;10.70;81.64
61345;BME280;47216;42.656;23.232;2023-04-25T03:33:58;92987.94;;;10.78;82.00
61345;BME280;47216;42.656;23.232;2023-04-25T03:36:25;92979.09;;;10.74;81.37
61345;BME280;47216;42.656;23.232;2023-04-25T03:38:53;92974.44;;;10.71;81.60
61345;BME280;47216;42.656;23.232;2023-04-25T03:41:20;92970.28;;;10.70;81.20
61345;BME280;47216;42.656;23.232;2023-04-25T03:43:47;92975.50;;;10.70;80.04
61345;BME280;47216;42.656;23.232;2023-04-25T03:46:14;92967.81;;;10.89;79.95
61345;BME280;47216;42.656;23.232;2023-04-25T03:48:41;92974.28;;;10.97;79.73
61345;BME280;47216;42.656;23.232;2023-04-25T03:51:07;92974.22;;;11.07;79.73
61345;BME280;47216;42.656;23.232;2023-04-25T03:53:34;92968.97;;;11.12;79.89
61345;BME280;47216;42.656;23.232;2023-04-25T03:56:03;92972.56;;;11.21;79.23
61345;BME280;47216;42.656;23.232;2023-04-25T03:58:29;92973.06;;;11.23;78.65
61345;BME280;47216;42.656;23.232;2023-04-25T04:00:57;92987.16;;;11.22;78.47
61345;BME280;47216;42.656;23.232;2023-04-25T04:03:23;92991.84;;;11.25;78.49
61345;BME280;47216;42.656;23.232;2023-04-25T04:05:50;93001.69;;;11.33;78.39
61345;BME280;47216;42.656;23.232;2023-04-25T04:08:17;93008.50;;;11.34;78.64
61345;BME280;47216;42.656;23.232;2023-04-25T04:10:44;93005.88;;;11.29;78.28
61345;BME280;47216;42.656;23.232;2023-04-25T04:13:12;93009.53;;;11.33;77.94
61345;BME280;47216;42.656;23.232;2023-04-25T04:15:39;92990.75;;;11.31;77.41
61345;BME280;47216;42.656;23.232;2023-04-25T04:18:06;92991.50;;;11.37;78.57
61345;BME280;47216;42.656;23.232;2023-04-25T04:20:33;92996.44;;;11.39;78.62
61345;BME280;47216;42.656;23.232;2023-04-25T04:23:00;92986.94;;;11.53;79.11
61345;BME280;47216;42.656;23.232;2023-04-25T04:25:27;92993.16;;;11.57;78.59
61345;BME280;47216;42.656;23.232;2023-04-25T04:27:53;92996.06;;;11.50;76.85
61345;BME280;47216;42.656;23.232;2023-04-25T04:30:23;92997.91;;;11.50;76.70
61345;BME280;47216;42.656;23.232;2023-04-25T04:32:50;92989.56;;;11.53;77.52
61345;BME280;47216;42.656;23.232;2023-04-25T04:35:17;92983.63;;;11.42;76.83
61345;BME280;47216;42.656;23.232;2023-04-25T04:37:44;92990.59;;;11.52;77.48
61345;BME280;47216;42.656;23.232;2023-04-25T04:40:12;92993.03;;;11.38;76.58
61345;BME280;47216;42.656;23.232;2023-04-25T04:42:41;92987.06;;;11.38;76.06
61345;BME280;47216;42.656;23.232;2023-04-25T04:45:09;92986.06;;;11.28;77.08
61345;BME280;47216;42.656;23.232;2023-04-25T04:47:38;92991.22;;;11.39;77.11
61345;BME280;47216;42.656;23.232;2023-04-25T04:50:05;92997.97;;;11.45;76.79
61345;BME280;47216;42.656;23.232;2023-04-25T04:52:34;92999.84;;;11.39;77.09
61345;BME280;47216;42.656;23.232;2023-04-25T04:55:01;93009.47;;;11.39;77.00
61345;BME280;47216;42.656;23.232;2023-04-25T04:57:28;93014.69;;;11.44;76.88
61345;BME280;47216;42.656;23.232;2023-04-25T04:59:56;93012.06;;;11.44;76.15
61345;BME280;47216;42.656;23.232;2023-04-25T05:02:23;93012.25;;;11.52;75.71
61345;BME280;47216;42.656;23.232;2023-04-25T05:04:51;93021.81;;;11.67;75.22
61345;BME280;47216;42.656;23.232;2023-04-25T05:07:18;93029.22;;;11.84;75.18
61345;BME280;47216;42.656;23.232;2023-04-25T05:09:45;93018.16;;;11.97;74.92
61345;BME280;47216;42.656;23.232;2023-04-25T05:12:11;93021.03;;;11.96;74.78
61345;BME280;47216;42.656;23.232;2023-04-25T05:14:38;93011.81;;;12.04;74.77
61345;BME280;47216;42.656;23.232;2023-04-25T05:17:05;93006.94;;;11.97;75.47
61345;BME280;47216;42.656;23.232;2023-04-25T05:19:33;93006.06;;;12.07;76.40
61345;BME280;47216;42.656;23.232;2023-04-25T05:22:02;93016.19;;;12.13;75.61
61345;BME280;47216;42.656;23.232;2023-04-25T05:24:29;93019.78;;;12.17;75.54
61345;BME280;47216;42.656;23.232;2023-04-25T05:26:55;93021.53;;;12.27;74.05
61345;BME280;47216;42.656;23.232;2023-04-25T05:29:22;93024.84;;;12.33;74.05
61345;BME280;47216;42.656;23.232;2023-04-25T05:31:49;93019.53;;;12.43;74.09
61345;BME280;47216;42.656;23.232;2023-04-25T05:34:16;93024.19;;;12.46;75.41
61345;BME280;47216;42.656;23.232;2023-04-25T05:36:43;93028.31;;;12.52;75.75
61345;BME280;47216;42.656;23.232;2023-04-25T05:39:11;93028.84;;;12.49;76.14
61345;BME280;47216;42.656;23.232;2023-04-25T05:41:38;93020.50;;;12.47;76.22
61345;BME280;47216;42.656;23.232;2023-04-25T05:44:05;93016.69;;;12.39;76.69
61345;BME280;47216;42.656;23.232;2023-04-25T05:46:32;93017.53;;;12.35;76.38
61345;BME280;47216;42.656;23.232;2023-04-25T05:48:59;93021.59;;;12.46;76.38
61345;BME280;47216;42.656;23.232;2023-04-25T05:51:26;93011.56;;;12.53;76.33
61345;BME280;47216;42.656;23.232;2023-04-25T05:53:53;93012.41;;;12.49;75.93
61345;BME280;47216;42.656;23.232;2023-04-25T05:56:21;93014.75;;;12.50;76.12
61345;BME280;47216;42.656;23.232;2023-04-25T05:58:48;93014.13;;;12.58;76.35
61345;BME280;47216;42.656;23.232;2023-04-25T06:01:15;93017.94;;;12.66;76.47
61345;BME280;47216;42.656;23.232;2023-04-25T06:03:42;93026.25;;;12.73;76.20
61345;BME280;47216;42.656;23.232;2023-04-25T06:06:09;93023.81;;;12.77;75.96
61345;BME280;47216;42.656;23.232;2023-04-25T06:08:36;93025.59;;;12.81;76.26
61345;BME280;47216;42.656;23.232;2023-04-25T06:11:04;93032.19;;;12.79;76.17
61345;BME280;47216;42.656;23.232;2023-04-25T06:13:32;93021.22;;;12.77;76.66
61345;BME280;47216;42.656;23.232;2023-04-25T06:15:59;93022.81;;;12.73;76.89
61345;BME280;47216;42.656;23.232;2023-04-25T06:18:26;93024.31;;;12.60;75.89
61345;BME280;47216;42.656;23.232;2023-04-25T06:20:53;93025.84;;;12.61;76.33
61345;BME280;47216;42.656;23.232;2023-04-25T06:23:20;93027.75;;;12.55;76.37
61345;BME280;47216;42.656;23.232;2023-04-25T06:25:47;93038.09;;;12.66;76.68
61345;BME280;47216;42.656;23.232;2023-04-25T06:28:13;93033.56;;;12.52;76.87
61345;BME280;47216;42.656;23.232;2023-04-25T06:30:42;93028.84;;;12.73;76.64
61345;BME280;47216;42.656;23.232;2023-04-25T06:33:08;93041.03;;;12.83;75.70
61345;BME280;47216;42.656;23.232;2023-04-25T06:35:35;93043.66;;;12.83;75.83
61345;BME280;47216;42.656;23.232;2023-04-25T06:38:02;93045.19;;;12.84;75.84
61345;BME280;47216;42.656;23.232;2023-04-25T06:40:29;93039.19;;;12.83;75.82
61345;BME280;47216;42.656;23.232;2023-04-25T06:42:56;93053.53;;;12.86;75.94
61345;BME280;47216;42.656;23.232;2023-04-25T06:45:23;93056.56;;;12.74;76.15
61345;BME280;47216;42.656;23.232;2023-04-25T06:47:51;93040.97;;;12.88;75.77
61345;BME280;47216;42.656;23.232;2023-04-25T06:50:18;93043.44;;;12.98;76.01
61345;BME280;47216;42.656;23.232;2023-04-25T06:52:45;93049.16;;;13.00;75.79
61345;BME280;47216;42.656;23.232;2023-04-25T06:55:11;93040.47;;;12.86;76.17
61345;BME280;47216;42.656;23.232;2023-04-25T06:57:38;93042.88;;;12.82;76.80
61345;BME280;47216;42.656;23.232;2023-04-25T07:00:06;93047.69;;;12.94;76.34
61345;BME280;47216;42.656;23.232;2023-04-25T07:02:34;93046.63;;;12.95;76.03
61345;BME280;47216;42.656;23.232;2023-04-25T07:05:03;93036.81;;;13.06;74.35
61345;BME280;47216;42.656;23.232;2023-04-25T07:07:31;93054.47;;;12.95;74.02
61345;BME280;47216;42.656;23.232;2023-04-25T07:09:57;93041.47;;;12.90;72.51
61345;BME280;47216;42.656;23.232;2023-04-25T07:12:24;93036.59;;;13.02;71.38
61345;BME280;47216;42.656;23.232;2023-04-25T07:14:51;93038.00;;;13.14;68.30
61345;BME280;47216;42.656;23.232;2023-04-25T07:17:18;93043.88;;;13.24;68.02
61345;BME280;47216;42.656;23.232;2023-04-25T07:19:45;93027.06;;;13.31;65.70
61345;BME280;47216;42.656;23.232;2023-04-25T07:22:13;93030.97;;;13.33;64.89
61345;BME280;47216;42.656;23.232;2023-04-25T07:24:40;93027.69;;;13.41;65.76
61345;BME280;47216;42.656;23.232;2023-04-25T07:27:06;93026.56;;;13.48;65.21
61345;BME280;47216;42.656;23.232;2023-04-25T07:29:33;93023.88;;;13.53;66.36
61345;BME280;47216;42.656;23.232;2023-04-25T07:32:02;93025.84;;;13.61;66.03
61345;BME280;47216;42.656;23.232;2023-04-25T07:34:29;93010.69;;;13.58;63.95
61345;BME280;47216;42.656;23.232;2023-04-25T07:36:57;93022.25;;;13.57;64.25
61345;BME280;47216;42.656;23.232;2023-04-25T07:39:26;93022.31;;;13.52;64.53
61345;BME280;47216;42.656;23.232;2023-04-25T07:41:52;93019.13;;;13.55;63.70
61345;BME280;47216;42.656;23.232;2023-04-25T07:44:20;93027.41;;;13.62;63.25
61345;BME280;47216;42.656;23.232;2023-04-25T07:46:47;93028.69;;;13.78;65.01
61345;BME280;47216;42.656;23.232;2023-04-25T07:49:14;93030.00;;;13.95;62.49
61345;BME280;47216;42.656;23.232;2023-04-25T07:51:41;93019.38;;;14.05;62.71
61345;BME280;47216;42.656;23.232;2023-04-25T07:54:08;93004.59;;;14.09;62.53
61345;BME280;47216;42.656;23.232;2023-04-25T07:56:37;93009.66;;;14.19;60.93
61345;BME280;47216;42.656;23.232;2023-04-25T07:59:03;93005.41;;;14.37;62.39
61345;BME280;47216;42.656;23.232;2023-04-25T08:01:30;93011.91;;;14.40;60.77
61345;BME280;47216;42.656;23.232;2023-04-25T08:03:57;93008.31;;;14.49;60.93
61345;BME280;47216;42.656;23.232;2023-04-25T08:06:24;93004.63;;;14.78;61.22
61345;BME280;47216;42.656;23.232;2023-04-25T08:08:51;93001.97;;;14.92;60.42
61345;BME280;47216;42.656;23.232;2023-04-25T08:11:17;93002.69;;;15.20;59.29
61345;BME280;47216;42.656;23.232;2023-04-25T08:13:46;92998.66;;;15.37;58.61
61345;BME280;47216;42.656;23.232;2023-04-25T08:16:13;93004.69;;;15.60;57.99
61345;BME280;47216;42.656;23.232;2023-04-25T08:18:40;93008.38;;;15.36;57.16
61345;BME280;47216;42.656;23.232;2023-04-25T08:21:07;92995.22;;;15.13;56.37
61345;BME280;47216;42.656;23.232;2023-04-25T08:23:36;92995.94;;;15.05;57.43
61345;BME280;47216;42.656;23.232;2023-04-25T08:26:03;93004.41;;;15.02;58.92
61345;BME280;47216;42.656;23.232;2023-04-25T08:28:31;92996.53;;;15.02;58.13
61345;BME280;47216;42.656;23.232;2023-04-25T08:30:59;92994.69;;;14.89;59.45
61345;BME280;47216;42.656;23.232;2023-04-25T08:33:26;92993.09;;;14.65;60.92
61345;BME280;47216;42.656;23.232;2023-04-25T08:35:53;93010.47;;;14.61;60.41
61345;BME280;47216;42.656;23.232;2023-04-25T08:38:19;93003.94;;;14.45;62.73
61345;BME280;47216;42.656;23.232;2023-04-25T08:40:49;93007.38;;;14.59;62.52
61345;BME280;47216;42.656;23.232;2023-04-25T08:43:18;92994.91;;;14.79;60.79
61345;BME280;47216;42.656;23.232;2023-04-25T08:45:46;92991.34;;;14.97;60.26
61345;BME280;47216;42.656;23.232;2023-04-25T08:48:15;92995.06;;;14.96;57.21
61345;BME280;47216;42.656;23.232;2023-04-25T08:50:45;92997.00;;;15.04;57.35
61345;BME280;47216;42.656;23.232;2023-04-25T08:53:16;92982.69;;;15.10;58.04
61345;BME280;47216;42.656;23.232;2023-04-25T08:55:46;92990.91;;;15.18;55.92
61345;BME280;47216;42.656;23.232;2023-04-25T08:58:13;92987.75;;;15.29;55.10
61345;BME280;47216;42.656;23.232;2023-04-25T09:00:40;92984.25;;;15.34;55.43
61345;BME280;47216;42.656;23.232;2023-04-25T09:03:07;92993.56;;;15.40;54.46
61345;BME280;47216;42.656;23.232;2023-04-25T09:05:36;92992.59;;;15.36;54.94
61345;BME280;47216;42.656;23.232;2023-04-25T09:08:03;92977.03;;;15.40;54.98
61345;BME280;47216;42.656;23.232;2023-04-25T09:10:30;92980.56;;;15.35;54.92
61345;BME280;47216;42.656;23.232;2023-04-25T09:13:02;92982.91;;;15.37;56.22
61345;BME280;47216;42.656;23.232;2023-04-25T09:15:30;92995.34;;;15.31;53.42
61345;BME280;47216;42.656;23.232;2023-04-25T09:17:57;92995.78;;;15.24;53.04
61345;BME280;47216;42.656;23.232;2023-04-25T09:20:25;92990.56;;;15.10;51.25
61345;BME280;47216;42.656;23.232;2023-04-25T09:23:03;92985.31;;;15.10;50.67
61345;BME280;47216;42.656;23.232;2023-04-25T09:25:34;92989.50;;;15.11;51.37
61345;BME280;47216;42.656;23.232;2023-04-25T09:28:05;92981.03;;;15.15;50.76
61345;BME280;47216;42.656;23.232;2023-04-25T09:30:34;92985.09;;;15.21;50.45
61345;BME280;47216;42.656;23.232;2023-04-25T09:33:05;92985.47;;;15.28;51.05
61345;BME280;47216;42.656;23.232;2023-04-25T09:35:36;92972.00;;;15.29;50.02
61345;BME280;47216;42.656;23.232;2023-04-25T09:38:11;92978.53;;;15.54;49.85
61345;BME280;47216;42.656;23.232;2023-04-25T09:40:41;92974.00;;;15.69;49.32
61345;BME280;47216;42.656;23.232;2023-04-25T09:43:09;92971.97;;;15.88;50.25
61345;BME280;47216;42.656;23.232;2023-04-25T09:45:43;92971.44;;;16.09;49.37
61345;BME280;47216;42.656;23.232;2023-04-25T09:48:16;92970.22;;;16.15;47.25
61345;BME280;47216;42.656;23.232;2023-04-25T09:50:44;92974.47;;;16.33;49.15
61345;BME280;47216;42.656;23.232;2023-04-25T09:53:12;92966.56;;;16.33;47.46
61345;BME280;47216;42.656;23.232;2023-04-25T09:55:39;92982.91;;;16.13;47.55
61345;BME280;47216;42.656;23.232;2023-04-25T09:58:08;92972.50;;;16.08;46.78
61345;BME280;47216;42.656;23.232;2023-04-25T10:00:37;92983.91;;;15.94;47.54
61345;BME280;47216;42.656;23.232;2023-04-25T10:03:05;93005.78;;;15.81;47.77
61345;BME280;47216;42.656;23.232;2023-04-25T10:05:34;93015.97;;;15.60;51.58
61345;BME280;47216;42.656;23.232;2023-04-25T10:08:03;93031.13;;;15.18;56.01
61345;BME280;47216;42.656;23.232;2023-04-25T10:10:32;93006.69;;;14.81;58.39
61345;BME280;47216;42.656;23.232;2023-04-25T10:13:03;93008.81;;;14.65;60.60
61345;BME280;47216;42.656;23.232;2023-04-25T10:15:33;93004.63;;;14.64;62.50
61345;BME280;47216;42.656;23.232;2023-04-25T10:18:01;93003.47;;;14.70;64.06
61345;BME280;47216;42.656;23.232;2023-04-25T10:20:29;92985.97;;;14.80;64.78
61345;BME280;47216;42.656;23.232;2023-04-25T10:23:01;92993.50;;;15.09;61.19
61345;BME280;47216;42.656;23.232;2023-04-25T10:25:33;92984.84;;;15.31;56.42
61345;BME280;47216;42.656;23.232;2023-04-25T10:28:00;92967.31;;;15.63;53.14
61345;BME280;47216;42.656;23.232;2023-04-25T10:30:28;92957.84;;;15.84;51.61
61345;BME280;47216;42.656;23.232;2023-04-25T10:32:55;92965.50;;;15.94;50.74
61345;BME280;47216;42.656;23.232;2023-04-25T10:35:25;92966.09;;;15.91;50.92
61345;BME280;47216;42.656;23.232;2023-04-25T10:38:04;92965.19;;;15.96;50.06
61345;BME280;47216;42.656;23.232;2023-04-25T10:40:32;92974.78;;;16.01;50.67
61345;BME280;47216;42.656;23.232;2023-04-25T10:43:34;92968.34;;;16.07;50.51
61345;BME280;47216;42.656;23.232;2023-04-25T10:46:01;92960.59;;;16.10;50.61
61345;BME280;47216;42.656;23.232;2023-04-25T10:48:29;92967.66;;;15.92;50.12
61345;BME280;47216;42.656;23.232;2023-04-25T10:51:11;92961.44;;;15.88;50.41
61345;BME280;47216;42.656;23.232;2023-04-25T10:53:38;92971.19;;;15.88;49.73
61345;BME280;47216;42.656;23.232;2023-04-25T10:56:11;92965.13;;;15.87;50.51
61345;BME280;47216;42.656;23.232;2023-04-25T10:58:42;92948.94;;;15.94;50.09
61345;BME280;47216;42.656;23.232;2023-04-25T11:01:09;92950.06;;;16.02;49.73
61345;BME280;47216;42.656;23.232;2023-04-25T11:03:39;92963.22;;;16.02;50.10
61345;BME280;47216;42.656;23.232;2023-04-25T11:06:15;92954.25;;;16.03;49.46
61345;BME280;47216;42.656;23.232;2023-04-25T11:08:48;92948.28;;;16.28;49.57
61345;BME280;47216;42.656;23.232;2023-04-25T11:11:17;92945.81;;;16.23;49.55
61345;BME280;47216;42.656;23.232;2023-04-25T11:13:47;92937.31;;;16.26;48.85
61345;BME280;47216;42.656;23.232;2023-04-25T11:16:15;92935.00;;;16.33;48.84
61345;BME280;47216;42.656;23.232;2023-04-25T11:18:42;92942.44;;;16.31;49.80
61345;BME280;47216;42.656;23.232;2023-04-25T11:21:09;92951.09;;;16.32;49.42
61345;BME280;47216;42.656;23.232;2023-04-25T11:23:37;92950.59;;;16.21;48.77
61345;BME280;47216;42.656;23.232;2023-04-25T11:26:04;92957.44;;;16.22;49.49
61345;BME280;47216;42.656;23.232;2023-04-25T11:28:32;92958.34;;;16.26;50.95
61345;BME280;47216;42.656;23.232;2023-04-25T11:30:59;92971.50;;;16.17;50.52
61345;BME280;47216;42.656;23.232;2023-04-25T11:33:26;92964.47;;;16.04;51.42
61345;BME280;47216;42.656;23.232;2023-04-25T11:35:54;92979.72;;;15.93;52.47
61345;BME280;47216;42.656;23.232;2023-04-25T11:38:22;92989.34;;;15.75;54.33
61345;BME280;47216;42.656;23.232;2023-04-25T11:40:50;92988.13;;;15.59;52.59
61345;BME280;47216;42.656;23.232;2023-04-25T11:43:18;92987.47;;;15.31;53.68
61345;BME280;47216;42.656;23.232;2023-04-25T11:45:48;92985.66;;;14.95;56.12
61345;BME280;47216;42.656;23.232;2023-04-25T11:48:15;92966.88;;;14.88;57.47
61345;BME280;47216;42.656;23.232;2023-04-25T11:50:42;92979.91;;;14.93;59.02
61345;BME280;47216;42.656;23.232;2023-04-25T11:53:10;92963.38;;;14.92;58.95
61345;BME280;47216;42.656;23.232;2023-04-25T11:55:37;92960.84;;;14.87;59.45
61345;BME280;47216;42.656;23.232;2023-04-25T11:58:05;92939.56;;;14.89;59.59
61345;BME280;47216;42.656;23.232;2023-04-25T12:00:32;92943.97;;;14.80;62.09
61345;BME280;47216;42.656;23.232;2023-04-25T12:03:00;92922.59;;;14.73;58.77
61345;BME280;47216;42.656;23.232;2023-04-25T12:05:29;92937.09;;;14.70;59.11
61345;BME280;47216;42.656;23.232;2023-04-25T12:08:09;92927.94;;;14.81;58.87
61345;BME280;47216;42.656;23.232;2023-04-25T12:10:37;92938.84;;;14.97;56.82
61345;BME280;47216;42.656;23.232;2023-04-25T12:13:18;92941.38;;;15.02;55.19
61345;BME280;47216;42.656;23.232;2023-04-25T12:15:45;92943.53;;;15.00;55.74
61345;BME280;47216;42.656;23.232;2023-04-25T12:18:14;92949.44;;;15.06;54.93
61345;BME280;47216;42.656;23.232;2023-04-25T12:20:41;92953.22;;;15.13;56.19
61345;BME280;47216;42.656;23.232;2023-04-25T12:23:08;92951.03;;;15.16;57.23
61345;BME280;47216;42.656;23.232;2023-04-25T12:25:37;92943.91;;;15.07;58.42
61345;BME280;47216;42.656;23.232;2023-04-25T12:28:14;92959.66;;;15.07;58.20
61345;BME280;47216;42.656;23.232;2023-04-25T12:30:58;92990.97;;;15.04;56.24
61345;BME280;47216;42.656;23.232;2023-04-25T12:33:28;93001.13;;;14.83;57.00
61345;BME280;47216;42.656;23.232;2023-04-25T12:35:55;93020.34;;;14.50;58.49
61345;BME280;47216;42.656;23.232;2023-04-25T12:38:23;93003.13;;;14.03;60.24
61345;BME280;47216;42.656;23.232;2023-04-25T12:40:51;92998.66;;;13.90;61.39
61345;BME280;47216;42.656;23.232;2023-04-25T12:43:18;92998.47;;;14.00;61.39
61345;BME280;47216;42.656;23.232;2023-04-25T12:45:47;93002.94;;;14.13;61.64
61345;BME280;47216;42.656;23.232;2023-04-25T12:48:14;93001.50;;;14.21;61.57
61345;BME280;47216;42.656;23.232;2023-04-25T12:50:43;93006.19;;;14.38;61.49
61345;BME280;47216;42.656;23.232;2023-04-25T12:53:10;92995.69;;;14.38;61.93